Time;durP1;ratioP1;P1;durP2;ratioP2;P2;SDS_P1;SDS_P2;PMS_P1;PMS_P2;Temp;Humidity;BMP_temperature;BMP_pressure;BME280_temperature;BME280_humidity;BME280_pressure;Samples;Min_cycle;Max_cycle;Signal;HPM_P1;HPM_P2
2021/04/06 09:57:25;;;;;;;4.93;0.90;;;8.90;99.90;;;;;;6103327;23;20210;-73
2021/04/06 09:59:54;;;;;;;2.73;0.77;;;9.00;99.90;;;;;;6125490;23;20186;-67
2021/04/06 10:02:22;;;;;;;3.97;0.50;;;9.00;99.90;;;;;;6126124;23;20634;-73
2021/04/06 10:04:51;;;;;;;2.70;0.70;;;9.00;99.90;;;;;;6126333;23;20220;-73
2021/04/06 10:07:19;;;;;;;0.63;0.40;;;8.70;99.90;;;;;;6126156;23;20186;-71
2021/04/06 10:09:47;;;;;;;1.27;0.20;;;8.30;99.90;;;;;;6126402;23;20273;-68
2021/04/06 10:12:16;;;;;;;0.20;0.10;;;7.20;99.90;;;;;;6125737;23;20479;-69
2021/04/06 10:14:44;;;;;;;0.20;0.10;;;5.90;99.90;;;;;;6126181;23;20221;-71
2021/04/06 10:17:14;;;;;;;1.23;0.20;;;5.00;99.90;;;;;;6126403;23;20189;-76
2021/04/06 10:19:43;;;;;;;0.60;0.30;;;4.60;99.90;;;;;;6127562;23;20233;-70
2021/04/06 10:22:12;;;;;;;1.70;0.37;;;4.20;99.90;;;;;;6127876;23;20187;-71
2021/04/06 10:24:41;;;;;;;0.40;0.10;;;3.60;99.90;;;;;;6127563;23;20199;-70
2021/04/06 10:27:17;;;;;;;0.60;0.30;;;3.10;99.90;;;;;;6126444;23;20187;-67
2021/04/06 10:29:46;;;;;;;0.63;0.30;;;2.80;99.90;;;;;;6126618;23;20501;-78
2021/04/06 10:32:34;;;;;;;0.70;0.40;;;2.60;99.90;;;;;;6127095;23;20179;-77
2021/04/06 10:35:06;;;;;;;3.00;0.60;;;2.50;99.90;;;;;;6126619;23;20235;-77
2021/04/06 10:37:41;;;;;;;1.13;0.67;;;2.60;99.90;;;;;;6121549;23;20277;-72
2021/04/06 10:40:35;;;;;;;4.57;0.80;;;2.70;99.90;;;;;;6123875;23;20178;-75
2021/04/06 10:43:06;;;;;;;5.77;0.90;;;2.80;99.90;;;;;;6055285;23;20182;-72
2021/04/06 10:45:35;;;;;;;2.60;0.50;;;2.90;99.90;;;;;;6122020;23;20210;-71
2021/04/06 10:48:07;;;;;;;5.07;0.60;;;2.90;99.90;;;;;;6123520;23;20183;-76
2021/04/06 10:50:36;;;;;;;1.57;0.80;;;3.00;99.90;;;;;;6122605;23;20191;-73
2021/04/06 10:53:18;;;;;;;2.23;0.70;;;3.20;99.90;;;;;;6123985;23;20183;-72
2021/04/06 10:55:46;;;;;;;4.43;0.93;;;3.30;99.90;;;;;;6123980;23;20616;-72
2021/04/06 10:58:20;;;;;;;2.30;0.83;;;3.60;99.90;;;;;;6124683;23;20268;-72
2021/04/06 11:00:55;;;;;;;5.17;0.87;;;3.90;99.90;;;;;;6123619;23;20186;-75
2021/04/06 11:03:22;;;;;;;4.83;1.00;;;4.50;99.90;;;;;;6123869;23;20178;-72
2021/04/06 11:05:49;;;;;;;3.60;1.10;;;5.00;99.90;;;;;;6122781;23;20226;-71
2021/04/06 11:08:20;;;;;;;1.00;0.60;;;5.30;99.90;;;;;;6124136;23;20190;-74
2021/04/06 11:10:47;;;;;;;4.20;0.83;;;5.60;99.90;;;;;;6124256;23;20261;-72
2021/04/06 11:13:14;;;;;;;2.20;0.73;;;5.60;99.90;;;;;;6122466;23;20178;-72
2021/04/06 11:15:41;;;;;;;1.30;0.67;;;5.90;99.90;;;;;;6123740;23;20207;-74
2021/04/06 11:18:09;;;;;;;2.77;0.60;;;6.10;99.90;;;;;;6124431;23;20219;-70
2021/04/06 11:20:36;;;;;;;3.87;1.07;;;6.40;99.90;;;;;;6125700;23;20535;-72
2021/04/06 11:23:02;;;;;;;1.63;1.10;;;6.60;99.90;;;;;;6126745;23;20179;-72
2021/04/06 11:25:28;;;;;;;3.43;1.10;;;7.10;99.90;;;;;;6127444;23;20199;-73
2021/04/06 11:27:58;;;;;;;3.80;0.70;;;7.10;99.90;;;;;;6127537;23;20179;-69
2021/04/06 11:30:31;;;;;;;4.17;0.70;;;7.20;99.90;;;;;;6127447;23;20554;-72
2021/04/06 11:32:58;;;;;;;0.60;0.60;;;7.30;99.90;;;;;;6127544;23;20198;-73
2021/04/06 11:35:25;;;;;;;1.70;0.73;;;7.30;99.90;;;;;;6126583;23;20202;-72
2021/04/06 11:37:52;;;;;;;1.43;0.90;;;7.30;99.90;;;;;;6126626;23;20363;-71
2021/04/06 11:40:18;;;;;;;0.70;0.50;;;7.40;99.90;;;;;;6126673;23;20265;-70
2021/04/06 11:42:44;;;;;;;1.10;0.63;;;7.40;99.90;;;;;;6126449;23;20626;-69
2021/04/06 11:45:12;;;;;;;4.03;0.70;;;7.50;99.90;;;;;;6126456;23;20202;-70
2021/04/06 11:47:38;;;;;;;5.03;0.80;;;7.50;99.90;;;;;;6127410;23;20187;-71
2021/04/06 11:50:07;;;;;;;3.00;0.70;;;7.10;99.90;;;;;;6127016;23;20214;-70
2021/04/06 11:52:35;;;;;;;1.97;0.73;;;6.50;99.90;;;;;;6127320;23;20190;-72
2021/04/06 11:55:02;;;;;;;5.47;0.80;;;5.90;99.90;;;;;;6126460;23;20657;-71
2021/04/06 11:57:28;;;;;;;2.67;0.63;;;5.30;99.90;;;;;;6125996;23;20209;-71
2021/04/06 11:59:55;;;;;;;2.30;0.77;;;4.90;99.90;;;;;;6126235;23;20183;-70
2021/04/06 12:02:22;;;;;;;1.50;0.50;;;4.50;99.90;;;;;;6126514;23;20210;-71
2021/04/06 12:04:48;;;;;;;2.30;0.60;;;4.50;99.90;;;;;;6126686;23;20212;-69
2021/04/06 12:07:15;;;;;;;2.23;0.60;;;4.40;99.90;;;;;;6126752;23;20654;-70
2021/04/06 12:09:42;;;;;;;0.70;0.50;;;4.60;99.90;;;;;;6126652;23;20190;-69
2021/04/06 12:12:09;;;;;;;1.30;0.40;;;4.70;99.90;;;;;;6126815;23;20179;-70
2021/04/06 12:14:35;;;;;;;2.33;0.60;;;4.80;99.90;;;;;;6126651;23;20199;-70
2021/04/06 12:17:01;;;;;;;2.77;0.50;;;5.00;99.90;;;;;;6127301;23;20189;-70
2021/04/06 12:19:27;;;;;;;3.73;0.87;;;5.20;99.90;;;;;;6126911;23;20211;-70
2021/04/06 12:21:54;;;;;;;3.30;0.70;;;5.40;99.90;;;;;;6127114;23;20201;-70
2021/04/06 12:24:20;;;;;;;1.73;0.50;;;5.70;99.90;;;;;;6126539;23;20203;-72
2021/04/06 12:26:47;;;;;;;0.43;0.40;;;5.60;99.90;;;;;;6126560;23;20187;-73
2021/04/06 12:29:13;;;;;;;4.33;0.60;;;5.00;99.90;;;;;;6126521;23;20191;-70
2021/04/06 12:31:39;;;;;;;1.33;0.40;;;4.60;99.90;;;;;;6126715;23;20179;-71
2021/04/06 12:34:06;;;;;;;1.60;0.43;;;4.10;99.90;;;;;;6125930;23;20210;-70
2021/04/06 12:36:32;;;;;;;0.47;0.37;;;3.60;99.90;;;;;;6126572;23;20522;-70
2021/04/06 12:38:58;;;;;;;1.60;0.57;;;3.40;99.90;;;;;;6126251;23;20723;-70
2021/04/06 12:41:24;;;;;;;4.73;0.60;;;3.30;99.90;;;;;;6126700;23;20179;-71
2021/04/06 12:43:51;;;;;;;1.60;0.50;;;3.50;99.90;;;;;;6126464;23;20210;-70
2021/04/06 12:46:18;;;;;;;1.10;0.70;;;3.80;99.90;;;;;;6126594;23;20183;-70
2021/04/06 12:48:44;;;;;;;3.10;1.07;;;4.40;99.90;;;;;;6126501;23;20245;-71
2021/04/06 12:51:10;;;;;;;2.43;0.70;;;4.80;99.90;;;;;;6125681;23;20187;-71
2021/04/06 12:53:36;;;;;;;0.70;0.50;;;5.30;99.90;;;;;;6125267;23;20190;-71
2021/04/06 12:56:03;;;;;;;2.00;0.70;;;5.50;99.90;;;;;;6125306;23;20198;-71
2021/04/06 12:58:30;;;;;;;5.00;0.77;;;5.70;99.90;;;;;;6126159;23;20261;-71
2021/04/06 13:00:57;;;;;;;1.70;0.53;;;5.50;99.90;;;;;;6126617;23;20179;-71
2021/04/06 13:03:23;;;;;;;2.10;0.60;;;5.50;99.90;;;;;;6126589;23;20487;-71
2021/04/06 13:05:49;;;;;;;5.93;0.70;;;5.60;99.90;;;;;;6125684;23;20697;-71
2021/04/06 13:08:15;;;;;;;1.17;0.60;;;5.50;99.90;;;;;;6126542;23;20229;-71
2021/04/06 13:10:44;;;;;;;5.23;0.70;;;5.70;99.90;;;;;;6126207;23;20179;-73
2021/04/06 13:13:10;;;;;;;3.80;0.70;;;5.80;99.90;;;;;;6126301;23;20183;-72
2021/04/06 13:15:37;;;;;;;2.37;1.20;;;5.70;99.90;;;;;;6126496;23;20260;-70
2021/04/06 13:18:05;;;;;;;1.27;0.73;;;5.50;99.90;;;;;;6125973;23;20222;-71
2021/04/06 13:20:31;;;;;;;0.70;0.47;;;5.20;99.90;;;;;;6126113;23;20183;-72
2021/04/06 13:22:58;;;;;;;0.50;0.40;;;4.60;99.90;;;;;;6125771;23;20700;-73
2021/04/06 13:25:24;;;;;;;2.73;0.33;;;4.20;99.90;;;;;;6126111;23;20206;-73
2021/04/06 13:27:51;;;;;;;1.33;0.50;;;3.90;99.90;;;;;;6126187;23;20183;-73
2021/04/06 13:30:21;;;;;;;3.57;0.50;;;3.70;99.90;;;;;;6126041;23;20182;-72
2021/04/06 13:32:48;;;;;;;3.93;0.60;;;3.60;99.90;;;;;;6126505;23;20179;-71
2021/04/06 13:35:16;;;;;;;1.60;0.40;;;3.30;99.90;;;;;;6126421;23;20202;-71
2021/04/06 13:37:43;;;;;;;1.13;0.40;;;3.10;99.90;;;;;;6126383;23;20281;-71
2021/04/06 13:40:12;;;;;;;0.90;0.37;;;3.10;99.90;;;;;;6126431;23;20182;-71
2021/04/06 13:42:39;;;;;;;0.87;0.70;;;3.20;99.90;;;;;;6126811;23;20179;-70
2021/04/06 13:45:11;;;;;;;4.00;0.73;;;3.40;99.90;;;;;;6126328;23;20198;-71
2021/04/06 13:47:38;;;;;;;1.53;0.67;;;3.80;99.90;;;;;;6125992;23;20660;-72
2021/04/06 13:50:05;;;;;;;1.23;0.67;;;4.10;99.90;;;;;;6126159;23;20506;-72
2021/04/06 13:52:32;;;;;;;1.83;0.60;;;4.20;99.90;;;;;;6123464;23;20267;-74
2021/04/06 13:54:59;;;;;;;2.40;0.60;;;4.40;99.90;;;;;;6126304;23;20205;-74
2021/04/06 13:57:25;;;;;;;6.23;0.50;;;4.50;99.90;;;;;;6126069;23;20194;-72
2021/04/06 13:59:52;;;;;;;5.00;0.93;;;4.40;99.90;;;;;;6125997;23;20414;-72
2021/04/06 14:02:18;;;;;;;1.87;0.60;;;4.40;99.90;;;;;;6125881;23;20179;-71
2021/04/06 14:04:45;;;;;;;1.20;0.40;;;4.40;99.90;;;;;;6125705;23;20210;-71
2021/04/06 14:07:11;;;;;;;1.73;0.67;;;4.50;99.90;;;;;;6126044;23;20190;-71
2021/04/06 14:09:38;;;;;;;1.53;0.60;;;4.60;99.90;;;;;;6125969;23;20707;-71
2021/04/06 14:12:05;;;;;;;3.40;0.83;;;4.70;99.90;;;;;;6126133;23;20179;-70
2021/04/06 14:14:32;;;;;;;1.53;0.67;;;4.80;99.90;;;;;;6125978;23;20214;-70
2021/04/06 14:16:58;;;;;;;1.53;0.80;;;4.80;99.90;;;;;;6126169;23;20246;-71
2021/04/06 14:19:24;;;;;;;1.43;0.70;;;4.90;99.90;;;;;;6125650;23;20207;-71
2021/04/06 14:21:51;;;;;;;1.70;0.63;;;4.90;99.90;;;;;;6125698;23;20186;-72
2021/04/06 14:24:17;;;;;;;3.43;1.00;;;5.10;99.90;;;;;;6126236;23;20199;-71
2021/04/06 14:26:44;;;;;;;1.27;0.47;;;5.30;99.90;;;;;;6126232;23;20237;-72
2021/04/06 14:29:11;;;;;;;1.87;0.60;;;5.20;99.90;;;;;;6125617;23;20622;-72
2021/04/06 14:31:38;;;;;;;2.20;0.67;;;4.90;99.90;;;;;;6125836;23;20195;-71
2021/04/06 14:34:06;;;;;;;2.10;0.63;;;4.50;99.90;;;;;;6125997;23;20281;-71
2021/04/06 14:36:32;;;;;;;2.00;0.97;;;4.10;99.90;;;;;;6125892;23;20182;-71
2021/04/06 14:38:59;;;;;;;3.50;1.23;;;3.50;99.90;;;;;;6125564;23;20681;-72
2021/04/06 14:41:25;;;;;;;1.83;1.23;;;3.00;99.90;;;;;;6125741;23;20183;-72
2021/04/06 14:43:53;;;;;;;7.67;1.60;;;2.80;99.90;;;;;;6126075;23;20199;-73
2021/04/06 14:46:23;;;;;;;5.17;1.23;;;2.70;99.90;;;;;;6126118;23;20265;-70
2021/04/06 14:48:51;;;;;;;1.90;0.90;;;2.70;99.90;;;;;;6125716;23;20183;-70
2021/04/06 14:51:19;;;;;;;2.80;1.00;;;2.70;99.90;;;;;;6124910;23;20634;-68
2021/04/06 14:53:46;;;;;;;1.73;0.80;;;2.70;99.90;;;;;;6125607;23;20219;-71
2021/04/06 14:56:14;;;;;;;3.40;1.00;;;2.60;99.90;;;;;;6126161;23;20201;-69
2021/04/06 14:58:42;;;;;;;2.67;1.00;;;2.60;99.90;;;;;;6126069;23;20214;-69
2021/04/06 15:01:09;;;;;;;1.23;0.80;;;2.60;99.90;;;;;;6127169;23;20183;-71
2021/04/06 15:03:36;;;;;;;4.60;1.13;;;2.80;99.90;;;;;;6127844;23;20183;-71
2021/04/06 15:06:05;;;;;;;2.70;0.97;;;2.90;99.90;;;;;;6127843;23;20179;-71
2021/04/06 15:08:33;;;;;;;1.17;0.83;;;3.20;99.90;;;;;;6127800;23;20183;-70
2021/04/06 15:11:02;;;;;;;2.07;0.80;;;3.30;99.90;;;;;;6127624;23;20178;-69
2021/04/06 15:13:28;;;;;;;1.87;0.70;;;3.60;99.90;;;;;;6127711;23;20186;-70
2021/04/06 15:15:56;;;;;;;1.53;0.83;;;3.80;99.90;;;;;;6098364;23;20204;-72
2021/04/06 15:18:24;;;;;;;2.30;0.93;;;3.90;99.90;;;;;;6098441;23;20215;-72
2021/04/06 15:20:50;;;;;;;3.70;0.97;;;3.90;99.90;;;;;;6098119;23;20239;-71
2021/04/06 15:23:24;;;;;;;2.07;0.70;;;3.90;99.90;;;;;;6098608;23;20186;-71
2021/04/06 15:25:51;;;;;;;1.53;1.03;;;4.00;99.90;;;;;;6098477;23;20266;-71
2021/04/06 15:28:18;;;;;;;3.83;1.00;;;4.10;99.90;;;;;;6097771;23;20183;-72
2021/04/06 15:30:44;;;;;;;3.03;0.97;;;4.10;99.90;;;;;;6097929;23;20186;-72
2021/04/06 15:33:11;;;;;;;3.53;0.87;;;4.30;99.90;;;;;;6098001;23;20196;-71
2021/04/06 15:35:40;;;;;;;2.47;0.90;;;4.50;99.90;;;;;;6098047;23;20207;-72
2021/04/06 15:38:11;;;;;;;1.10;0.53;;;4.70;99.90;;;;;;6098260;23;20203;-72
2021/04/06 15:40:39;;;;;;;5.80;0.80;;;4.70;99.90;;;;;;6098080;23;20186;-71
2021/04/06 15:43:05;;;;;;;3.20;0.70;;;4.80;99.90;;;;;;6097509;23;20646;-71
2021/04/06 15:45:32;;;;;;;2.40;0.80;;;4.90;99.90;;;;;;6097832;23;20575;-72
2021/04/06 15:47:58;;;;;;;1.30;0.57;;;5.00;99.90;;;;;;6098102;23;20184;-71
2021/04/06 15:50:30;;;;;;;3.07;0.70;;;4.90;99.90;;;;;;6098185;23;20184;-72
2021/04/06 15:52:57;;;;;;;8.40;0.90;;;5.00;99.90;;;;;;6097817;23;20230;-72
2021/04/06 15:55:23;;;;;;;2.17;0.60;;;5.10;99.90;;;;;;6098032;23;20520;-72
2021/04/06 15:57:51;;;;;;;4.90;0.83;;;5.20;99.90;;;;;;6098321;23;20551;-72
2021/04/06 16:00:20;;;;;;;4.03;1.03;;;5.10;99.90;;;;;;6097877;23;20187;-72
2021/04/06 16:02:48;;;;;;;2.30;0.70;;;5.20;99.90;;;;;;6098143;23;20190;-72
2021/04/06 16:05:21;;;;;;;1.53;1.00;;;5.30;99.90;;;;;;6097309;23;20203;-72
2021/04/06 16:07:48;;;;;;;4.13;0.83;;;5.30;99.90;;;;;;6097603;23;20192;-71
2021/04/06 16:10:16;;;;;;;3.23;0.93;;;5.30;99.90;;;;;;6096696;23;20654;-71
2021/04/06 16:12:42;;;;;;;2.93;0.93;;;5.10;99.90;;;;;;6097919;23;20190;-71
2021/04/06 16:15:10;;;;;;;1.80;0.40;;;4.80;99.90;;;;;;6093995;23;20211;-73
2021/04/06 16:17:37;;;;;;;1.33;0.40;;;3.80;99.90;;;;;;6095660;23;20184;-78
2021/04/06 16:20:07;;;;;;;0.97;0.37;;;3.20;99.90;;;;;;6095712;23;20184;-73
2021/04/06 16:22:35;;;;;;;1.50;0.37;;;2.80;99.90;;;;;;6094657;23;20184;-78
2021/04/06 16:25:03;;;;;;;1.03;0.30;;;2.70;99.90;;;;;;6095820;23;20523;-75
2021/04/06 16:27:30;;;;;;;0.90;0.30;;;2.40;99.90;;;;;;6096442;23;20262;-76
2021/04/06 16:29:56;;;;;;;1.90;0.30;;;2.30;99.90;;;;;;6095812;23;20184;-75
2021/04/06 16:32:22;;;;;;;1.53;0.57;;;2.30;99.90;;;;;;6095565;23;20179;-81
2021/04/06 16:34:49;;;;;;;3.37;0.70;;;2.30;99.90;;;;;;6095779;23;20264;-75
2021/04/06 16:37:15;;;;;;;1.63;0.60;;;2.30;99.90;;;;;;6094893;23;20559;-81
2021/04/06 16:39:41;;;;;;;1.40;0.50;;;2.30;99.90;;;;;;6095579;23;20214;-79
2021/04/06 16:42:09;;;;;;;1.50;0.60;;;2.20;99.90;;;;;;6096293;23;20184;-80
2021/04/06 16:44:37;;;;;;;2.80;0.40;;;2.30;99.90;;;;;;6093586;23;20207;-75
2021/04/06 16:47:04;;;;;;;3.63;0.73;;;2.20;99.90;;;;;;6095339;23;20180;-75
2021/04/06 16:49:31;;;;;;;2.10;0.50;;;2.30;99.90;;;;;;6095941;23;20707;-75
2021/04/06 16:51:57;;;;;;;2.83;0.70;;;2.20;99.90;;;;;;6095675;23;20180;-76
2021/04/06 16:54:24;;;;;;;2.67;0.50;;;2.20;99.90;;;;;;6095607;23;20211;-72
2021/04/06 16:56:50;;;;;;;1.80;0.67;;;2.10;99.90;;;;;;6095033;23;20187;-78
2021/04/06 16:59:17;;;;;;;1.83;0.80;;;2.10;99.90;;;;;;6094447;23;20214;-74
2021/04/06 17:01:44;;;;;;;1.17;0.43;;;2.10;99.90;;;;;;6093948;23;20190;-76
2021/04/06 17:04:10;;;;;;;3.10;0.40;;;2.00;99.90;;;;;;6094373;23;20678;-78
2021/04/06 17:06:37;;;;;;;3.13;0.97;;;2.10;99.90;;;;;;6095212;23;20183;-78
2021/04/06 17:09:03;;;;;;;5.50;0.87;;;2.10;99.90;;;;;;6095102;23;20184;-83
2021/04/06 17:11:32;;;;;;;2.87;0.93;;;2.20;99.90;;;;;;6095171;23;20258;-81
2021/04/06 17:13:58;;;;;;;3.73;1.20;;;2.30;99.90;;;;;;6094642;23;20203;-77
2021/04/06 17:16:25;;;;;;;1.30;1.03;;;2.40;99.90;;;;;;6092537;23;20230;-76
2021/04/06 17:18:52;;;;;;;1.57;1.00;;;2.40;99.90;;;;;;6094402;23;20221;-81
2021/04/06 17:21:19;;;;;;;1.77;1.17;;;2.40;99.90;;;;;;6095010;23;20180;-73
2021/04/06 17:23:45;;;;;;;2.20;1.00;;;2.30;99.90;;;;;;6094194;23;20188;-74
2021/04/06 17:26:11;;;;;;;2.00;1.00;;;2.30;99.90;;;;;;6094629;23;20187;-77
2021/04/06 17:28:38;;;;;;;2.73;0.93;;;2.20;99.90;;;;;;6095440;23;20673;-82
2021/04/06 17:31:06;;;;;;;2.00;0.87;;;2.30;99.90;;;;;;6094130;23;20191;-78
2021/04/06 17:33:32;;;;;;;4.60;0.90;;;2.20;99.90;;;;;;6093934;23;20498;-76
2021/04/06 17:36:01;;;;;;;1.53;0.70;;;2.30;99.90;;;;;;6095030;23;20635;-82
2021/04/06 17:38:29;;;;;;;0.60;0.30;;;2.30;99.90;;;;;;6094332;23;20211;-75
2021/04/06 17:40:57;;;;;;;1.20;0.80;;;2.20;99.90;;;;;;6097027;23;20179;-73
2021/04/06 17:43:23;;;;;;;4.57;0.80;;;2.30;99.90;;;;;;6096293;23;20650;-73
2021/04/06 17:45:50;;;;;;;2.90;1.40;;;2.20;99.90;;;;;;6096792;23;20200;-73
2021/04/06 17:48:16;;;;;;;1.43;0.70;;;2.30;99.90;;;;;;6096961;23;20239;-73
2021/04/06 17:50:45;;;;;;;2.97;0.70;;;2.30;99.90;;;;;;6097055;23;20226;-73
2021/04/06 17:53:12;;;;;;;2.67;0.73;;;2.30;99.90;;;;;;6096893;23;20484;-73
2021/04/06 17:55:39;;;;;;;3.43;1.23;;;2.30;99.90;;;;;;6096339;23;20199;-73
2021/04/06 17:58:06;;;;;;;2.23;1.20;;;2.20;99.90;;;;;;6096250;23;20203;-73
2021/04/06 18:00:34;;;;;;;2.27;0.83;;;2.20;99.90;;;;;;6096304;23;20179;-73
2021/04/06 18:03:01;;;;;;;0.70;0.50;;;2.20;99.90;;;;;;6096489;23;20205;-73
2021/04/06 18:05:27;;;;;;;4.77;1.20;;;2.20;99.90;;;;;;6096261;23;20689;-72
2021/04/06 18:07:55;;;;;;;2.90;1.00;;;2.10;99.90;;;;;;6095966;23;20638;-72
2021/04/06 18:10:23;;;;;;;0.70;0.50;;;2.00;99.90;;;;;;6096371;23;20187;-72
2021/04/06 18:12:50;;;;;;;2.20;0.80;;;1.90;99.90;;;;;;6096166;23;20190;-73
2021/04/06 18:15:18;;;;;;;2.90;0.87;;;1.80;99.90;;;;;;6096567;23;20655;-73
2021/04/06 18:17:45;;;;;;;1.53;0.73;;;1.80;99.90;;;;;;6096201;23;20627;-73
2021/04/06 18:20:13;;;;;;;1.53;0.83;;;1.90;99.90;;;;;;6096390;23;20187;-72
2021/04/06 18:22:40;;;;;;;1.87;0.87;;;2.00;99.90;;;;;;6096593;23;20278;-72
2021/04/06 18:25:08;;;;;;;2.37;0.80;;;2.00;99.90;;;;;;6096484;23;20199;-73
2021/04/06 18:27:37;;;;;;;1.43;0.87;;;2.00;99.90;;;;;;6096036;23;20180;-72
2021/04/06 18:30:05;;;;;;;0.83;0.80;;;2.10;99.90;;;;;;6095677;23;20187;-72
2021/04/06 18:32:31;;;;;;;2.67;0.90;;;2.20;99.90;;;;;;6097542;23;20183;-72
2021/04/06 18:34:57;;;;;;;2.43;0.90;;;2.30;99.90;;;;;;6098413;23;20203;-73
2021/04/06 18:37:23;;;;;;;1.43;0.90;;;2.20;99.90;;;;;;6098672;23;20253;-73
2021/04/06 18:39:50;;;;;;;2.93;0.80;;;2.20;99.90;;;;;;6097937;23;20583;-73
2021/04/06 18:42:16;;;;;;;2.63;1.43;;;2.30;99.90;;;;;;6098395;23;20180;-72
2021/04/06 18:44:43;;;;;;;1.20;0.77;;;2.20;99.90;;;;;;6098156;23;20200;-73
2021/04/06 18:47:10;;;;;;;3.43;1.60;;;2.30;99.90;;;;;;6098239;23;20183;-73
2021/04/06 18:49:36;;;;;;;3.10;1.60;;;2.20;99.90;;;;;;6098069;23;20183;-73
2021/04/06 18:52:04;;;;;;;2.20;1.10;;;2.20;99.90;;;;;;6098181;23;20230;-73
2021/04/06 18:54:30;;;;;;;4.43;1.60;;;2.20;99.90;;;;;;6097579;23;20200;-73
2021/04/06 18:56:57;;;;;;;2.43;1.40;;;2.30;99.90;;;;;;6097970;23;20194;-73
2021/04/06 18:59:23;;;;;;;2.33;1.50;;;2.30;99.90;;;;;;6097645;23;20572;-73
2021/04/06 19:01:50;;;;;;;2.17;1.53;;;2.30;99.90;;;;;;6098353;23;20234;-73
2021/04/06 19:04:17;;;;;;;2.27;1.63;;;2.20;99.90;;;;;;6098254;23;20211;-73
2021/04/06 19:06:44;;;;;;;2.50;1.73;;;2.20;99.90;;;;;;6097379;23;20191;-71
2021/04/06 19:09:12;;;;;;;5.17;1.97;;;2.20;99.90;;;;;;6097933;23;20191;-71
2021/04/06 19:11:39;;;;;;;4.47;2.03;;;2.10;99.90;;;;;;6097765;23;20662;-71
2021/04/06 19:14:10;;;;;;;3.60;1.90;;;2.20;99.90;;;;;;6097426;23;20203;-71
2021/04/06 19:16:38;;;;;;;3.23;2.00;;;2.20;99.90;;;;;;6098071;23;20183;-70
2021/04/06 19:19:06;;;;;;;3.90;1.97;;;2.20;99.90;;;;;;6098204;23;20211;-72
2021/04/06 19:21:32;;;;;;;6.07;2.53;;;2.40;99.90;;;;;;6098236;23;20183;-71
2021/04/06 19:23:59;;;;;;;4.53;2.37;;;2.50;99.90;;;;;;6097509;23;20698;-71
2021/04/06 19:26:26;;;;;;;7.47;3.03;;;2.60;99.90;;;;;;6097982;23;20511;-70
2021/04/06 19:28:52;;;;;;;4.00;2.33;;;2.70;99.90;;;;;;6098019;23;20190;-70
2021/04/06 19:31:18;;;;;;;2.53;1.97;;;2.70;99.90;;;;;;6097977;23;20183;-71
2021/04/06 19:33:45;;;;;;;3.87;2.20;;;2.50;99.90;;;;;;6097797;23;20662;-71
2021/04/06 19:36:13;;;;;;;4.70;2.60;;;2.40;99.90;;;;;;6097809;23;20180;-71
2021/04/06 19:38:39;;;;;;;3.00;1.90;;;2.20;99.90;;;;;;6097809;23;20266;-71
2021/04/06 19:41:06;;;;;;;6.53;2.33;;;2.30;99.90;;;;;;6097825;23;20263;-71
2021/04/06 19:43:33;;;;;;;2.93;1.30;;;2.30;99.90;;;;;;6096738;23;20184;-70
2021/04/06 19:45:59;;;;;;;1.27;0.87;;;2.20;99.90;;;;;;6097449;23;20734;-71
2021/04/06 19:48:26;;;;;;;1.83;0.90;;;2.00;99.90;;;;;;6097483;23;20188;-70
2021/04/06 19:50:53;;;;;;;0.90;0.60;;;2.00;99.90;;;;;;6097434;23;20184;-70
2021/04/06 19:53:20;;;;;;;1.17;0.50;;;2.00;99.90;;;;;;6097467;23;20183;-70
2021/04/06 19:55:48;;;;;;;2.90;1.00;;;2.00;99.90;;;;;;6097460;23;20200;-70
2021/04/06 19:58:16;;;;;;;3.37;0.70;;;1.90;99.90;;;;;;6097104;23;20204;-71
2021/04/06 20:00:45;;;;;;;0.67;0.50;;;1.90;99.90;;;;;;6097317;23;20183;-71
2021/04/06 20:03:12;;;;;;;0.60;0.40;;;1.90;99.90;;;;;;6097724;23;20186;-71
2021/04/06 20:05:39;;;;;;;1.10;0.37;;;1.80;99.90;;;;;;6097791;23;20678;-71
2021/04/06 20:08:08;;;;;;;1.23;0.70;;;1.80;99.90;;;;;;6097492;23;20577;-70
2021/04/06 20:10:36;;;;;;;0.70;0.40;;;1.90;99.90;;;;;;6097975;23;20179;-71
2021/04/06 20:13:04;;;;;;;2.43;0.50;;;1.90;99.90;;;;;;6097894;23;20187;-71
2021/04/06 20:15:35;;;;;;;2.97;0.60;;;1.90;99.90;;;;;;6097822;23;20199;-72
2021/04/06 20:18:02;;;;;;;4.80;0.67;;;1.80;99.90;;;;;;6097850;23;20196;-70
2021/04/06 20:20:31;;;;;;;0.77;0.40;;;1.80;99.90;;;;;;6097777;23;20498;-71
2021/04/06 20:22:59;;;;;;;1.80;0.90;;;1.90;99.90;;;;;;6097772;23;20207;-71
2021/04/06 20:25:26;;;;;;;0.87;0.60;;;2.00;99.90;;;;;;6097370;23;20211;-71
2021/04/06 20:27:54;;;;;;;0.60;0.37;;;2.00;99.90;;;;;;6097047;23;20512;-71
2021/04/06 20:30:21;;;;;;;0.83;0.53;;;2.10;99.90;;;;;;6097397;23;20187;-71
2021/04/06 20:32:49;;;;;;;3.80;0.30;;;2.10;99.90;;;;;;6096970;23;20230;-71
2021/04/06 20:35:16;;;;;;;0.73;0.50;;;2.20;99.90;;;;;;6097188;23;20282;-71
2021/04/06 20:37:42;;;;;;;1.90;0.30;;;2.30;99.90;;;;;;6096931;23;20183;-71
2021/04/06 20:40:10;;;;;;;1.60;0.67;;;2.40;99.90;;;;;;6097352;23;20211;-71
2021/04/06 20:42:37;;;;;;;8.53;3.60;;;2.40;99.90;;;;;;6097527;23;20180;-70
2021/04/06 20:45:06;;;;;;;3.50;0.40;;;2.50;99.90;;;;;;6097367;23;20246;-71
2021/04/06 20:47:33;;;;;;;0.97;0.53;;;2.50;99.90;;;;;;6096502;23;20639;-72
2021/04/06 20:49:59;;;;;;;1.80;0.60;;;2.30;99.90;;;;;;6096761;23;20190;-71
2021/04/06 20:52:26;;;;;;;1.07;0.70;;;2.20;99.90;;;;;;6097100;23;20489;-71
2021/04/06 20:54:53;;;;;;;0.80;0.50;;;2.20;99.90;;;;;;6096812;23;20203;-71
2021/04/06 20:57:19;;;;;;;3.00;0.37;;;2.20;99.90;;;;;;6096648;23;20195;-71
2021/04/06 20:59:46;;;;;;;1.00;0.30;;;2.30;99.90;;;;;;6096596;23;20211;-70
